Charter Quote
Worldwide +1-877-727-2538 Call
Select Language Lang
SAFETY RELIABILITY EXPERIENCE

Private Jet Charter Services - Huai An Lianshui Airport (ZSSH)

Paramount Business Jets offers private jet charter flights and luxury airliner charters to and from Huai An Lianshui Airport.

AIRPORT INFORMATION
ICAOZSSH
LOCATIONHuai An, China
FACILITY TYPEAIRPORT

At Paramount Business Jets you can hire chartered private jets to and from Huai An Lianshui Airport with as little as 4 hours of notice. All flights booked via Paramount Business Jets are operated by certified direct air carriers that meet and exceed the FAA part 135 and 121 protocol or a foreign equivalent safety authority. Furthermore, Paramount Business Jets subscribes to ARGUS for their third party safety checks of operators, aircraft, and crews prior each and every flight to and from Huai An Lianshui Airport and worldwide.

  • Quote a trip using Huai An Lianshui Airport or call us 24/7 - 365 days a year at +1-877-727-2538.
Questions? Call +1-877-727-2538

METAR Weather Data at Huai An Lianshui Airport, ZSSH

STATIONZSSH
OBSERVEDSun Jul 23, 19:00 UTC
NOWMon Oct 21, 19:50 UTC
AGE19680:50 hr ago
WINDSSW at 2 mph
METARZSSH 231900Z AUTO 20001MPS ////NDV // NCD 29/28 Q1003

Call us on +1-877-727-2538 (24 Hours) to Hire a Private Jet or Get a Quick Quote.

Find Airports Near any Location

Processing
...